createdAt,value
2023-04-12T00:02:27.775Z,95517.94
2023-04-12T00:04:58.054Z,95518.31
2023-04-12T00:07:26.184Z,95515.30
2023-04-12T00:09:54.286Z,95515.05
2023-04-12T00:12:22.247Z,95508.21
2023-04-12T00:14:50.231Z,95507.73
2023-04-12T00:17:19.434Z,95504.35
2023-04-12T00:19:47.799Z,95504.10
2023-04-12T00:22:15.784Z,95499.26
2023-04-12T00:24:44.056Z,95501.01
2023-04-12T00:27:12.125Z,95499.94
2023-04-12T00:29:40.391Z,95497.02
2023-04-12T00:32:08.476Z,95493.64
2023-04-12T00:34:36.651Z,95491.02
2023-04-12T00:37:04.716Z,95485.50
2023-04-12T00:39:32.693Z,95482.66
2023-04-12T00:42:05.233Z,95479.59
2023-04-12T00:44:35.483Z,95480.42
2023-04-12T00:47:06.983Z,95477.21
2023-04-12T00:49:36.033Z,95471.69
2023-04-12T00:52:11.191Z,95468.84
2023-04-12T00:54:39.884Z,95466.71
2023-04-12T00:57:07.925Z,95463.56
2023-04-12T00:59:36.019Z,95461.89
2023-04-12T01:02:04.166Z,95461.29
2023-04-12T01:04:34.667Z,95459.75
2023-04-12T01:07:21.783Z,95456.69
2023-04-12T01:10:10.040Z,95456.16
2023-04-12T01:12:50.226Z,95454.95
2023-04-12T01:15:18.293Z,95455.19
2023-04-12T01:17:58.405Z,95453.12
2023-04-12T01:20:32.035Z,95450.21
2023-04-12T01:23:14.969Z,95448.23
2023-04-12T01:25:59.022Z,95446.63
2023-04-12T01:28:33.229Z,95443.35
2023-04-12T01:31:03.038Z,95440.83
2023-04-12T01:33:31.805Z,95439.23
2023-04-12T01:36:01.869Z,95436.53
2023-04-12T01:38:29.914Z,95439.22
2023-04-12T01:40:57.998Z,95437.54
2023-04-12T01:48:33.264Z,95438.89
2023-04-12T01:53:48.973Z,95424.40
2023-04-12T01:56:18.252Z,95425.86
2023-04-12T01:58:47.676Z,95423.09
2023-04-12T02:01:16.230Z,95424.38
2023-04-12T02:03:45.450Z,95422.83
2023-04-12T02:06:13.900Z,95420.80
2023-04-12T02:08:41.914Z,95417.89
2023-04-12T02:11:11.152Z,95413.45
2023-04-12T02:13:39.172Z,95408.51
2023-04-12T02:16:11.023Z,95402.51
2023-04-12T02:18:41.689Z,95401.80
2023-04-12T02:21:10.552Z,95404.92
2023-04-12T02:23:38.473Z,95399.83
2023-04-12T02:26:07.830Z,95395.35
2023-04-12T02:28:37.430Z,95396.17
2023-04-12T02:31:07.054Z,95394.85
2023-04-12T02:33:36.148Z,95392.84
2023-04-12T02:36:06.155Z,95394.44
2023-04-12T02:38:34.228Z,95391.88
2023-04-12T02:41:03.541Z,95392.77
2023-04-12T02:43:33.153Z,95393.61
2023-04-12T02:46:04.097Z,95390.06
2023-04-12T02:48:37.062Z,95386.66
2023-04-12T02:51:06.149Z,95389.20
2023-04-12T02:53:34.308Z,95389.80
2023-04-12T02:56:29.944Z,95389.33
2023-04-12T02:59:03.859Z,95387.25
2023-04-12T03:01:52.035Z,95387.02
2023-04-12T03:04:30.685Z,95386.01
2023-04-12T03:07:00.738Z,95383.01
2023-04-12T03:09:42.727Z,95380.79
2023-04-12T03:12:11.627Z,95377.80
2023-04-12T03:14:46.378Z,95375.96
2023-04-12T03:17:15.145Z,95376.35
2023-04-12T03:19:44.052Z,95376.14
2023-04-12T03:22:12.622Z,95375.90
2023-04-12T03:24:46.038Z,95376.84
2023-04-12T03:27:14.188Z,95380.52
2023-04-12T03:29:42.472Z,95379.84
2023-04-12T03:32:11.155Z,95379.77
2023-04-12T03:34:39.778Z,95382.25
2023-04-12T03:37:13.294Z,95387.48
2023-04-12T03:39:48.485Z,95385.65
2023-04-12T03:42:32.324Z,95385.83
2023-04-12T03:45:10.478Z,95385.83
2023-04-12T03:47:39.475Z,95386.08
2023-04-12T03:50:12.003Z,95385.77
2023-04-12T03:52:41.199Z,95385.48
2023-04-12T03:55:09.684Z,95383.20
2023-04-12T03:57:38.481Z,95380.70
2023-04-12T04:00:08.861Z,95382.94
2023-04-12T04:03:03.625Z,95387.77
2023-04-12T04:05:35.041Z,95389.10
2023-04-12T04:08:03.267Z,95391.73
2023-04-12T04:10:36.803Z,95389.96
2023-04-12T04:13:05.353Z,95392.61
2023-04-12T04:15:33.541Z,95393.16
2023-04-12T04:18:02.394Z,95397.71
2023-04-12T04:20:32.169Z,95398.16
2023-04-12T04:23:00.142Z,95397.02
2023-04-12T04:25:30.301Z,95402.10
2023-04-12T04:28:02.980Z,95400.52
2023-04-12T04:30:34.241Z,95404.98
2023-04-12T04:33:03.066Z,95408.67
2023-04-12T04:35:31.692Z,95408.60
2023-04-12T04:38:20.935Z,95409.45
2023-04-12T04:40:53.611Z,95410.50
2023-04-12T04:43:23.433Z,95412.10
2023-04-12T04:45:55.907Z,95413.40
2023-04-12T04:48:24.476Z,95413.38
2023-04-12T04:50:53.074Z,95417.59
2023-04-12T04:53:22.162Z,95421.65
2023-04-12T04:55:57.728Z,95427.23
2023-04-12T04:58:27.529Z,95425.71
2023-04-12T05:00:59.938Z,95430.09
2023-04-12T05:03:30.997Z,95433.64
2023-04-12T05:05:59.832Z,95435.25
2023-04-12T05:08:28.751Z,95439.16
2023-04-12T05:10:57.199Z,95436.30
2023-04-12T05:13:27.722Z,95434.67
2023-04-12T05:15:55.657Z,95433.30
2023-04-12T05:18:23.605Z,95432.13
2023-04-12T05:20:51.841Z,95432.71
2023-04-12T05:23:20.348Z,95432.73
2023-04-12T05:25:50.254Z,95434.59
2023-04-12T05:28:19.535Z,95437.16
2023-04-12T05:30:48.191Z,95439.54
2023-04-12T05:33:19.996Z,95441.08
2023-04-12T05:35:48.662Z,95441.32
2023-04-12T05:38:16.776Z,95443.64
2023-04-12T05:40:46.964Z,95444.31
2023-04-12T05:43:15.226Z,95439.92
2023-04-12T05:45:43.476Z,95439.48
2023-04-12T05:48:11.701Z,95440.29
2023-04-12T05:50:39.872Z,95440.21
2023-04-12T05:53:08.760Z,95440.12
2023-04-12T05:55:38.222Z,95440.31
2023-04-12T05:58:07.355Z,95440.86
2023-04-12T06:00:36.476Z,95440.24
2023-04-12T06:03:05.254Z,95442.70
2023-04-12T06:05:34.228Z,95440.60
2023-04-12T06:08:03.243Z,95440.48
2023-04-12T06:10:31.411Z,95442.48
2023-04-12T06:12:59.582Z,95439.00
2023-04-12T06:15:28.209Z,95442.29
2023-04-12T06:17:56.398Z,95441.77
2023-04-12T06:20:25.946Z,95440.79
2023-04-12T06:22:54.541Z,95440.54
2023-04-12T06:25:23.220Z,95435.72
2023-04-12T06:27:52.111Z,95435.46
2023-04-12T06:30:20.975Z,95438.27
2023-04-12T06:32:52.349Z,95439.91
2023-04-12T06:35:21.658Z,95436.36
2023-04-12T06:37:49.947Z,95432.42
2023-04-12T06:40:17.986Z,95432.02
2023-04-12T06:42:45.975Z,95430.38
2023-04-12T06:45:14.641Z,95426.51
2023-04-12T06:47:42.798Z,95427.15
2023-04-12T06:50:11.093Z,95423.71
2023-04-12T06:53:19.407Z,95419.39
2023-04-12T06:55:47.984Z,95424.83
2023-04-12T06:58:16.059Z,95426.83
2023-04-12T07:00:44.101Z,95427.52
2023-04-12T07:03:12.344Z,95429.98
2023-04-12T07:05:40.491Z,95425.25
2023-04-12T07:08:09.274Z,95425.56
2023-04-12T07:10:37.265Z,95419.94
2023-04-12T07:13:08.472Z,95419.41
2023-04-12T07:15:36.684Z,95424.07
2023-04-12T07:18:04.908Z,95423.16
2023-04-12T07:20:32.838Z,95423.38
2023-04-12T07:23:01.393Z,95423.30
2023-04-12T07:25:29.253Z,95419.92
2023-04-12T07:27:57.221Z,95416.85
2023-04-12T07:30:25.738Z,95418.83
2023-04-12T07:33:00.311Z,95418.45
2023-04-12T07:35:34.262Z,95419.98
2023-04-12T07:38:02.412Z,95420.81
2023-04-12T07:40:30.700Z,95422.27
2023-04-12T07:42:58.556Z,95418.73
2023-04-12T07:45:26.535Z,95419.19
2023-04-12T07:47:54.644Z,95425.11
2023-04-12T07:50:22.783Z,95425.48
2023-04-12T07:52:51.371Z,95427.40
2023-04-12T07:55:19.540Z,95428.46
2023-04-12T07:57:47.510Z,95425.10
2023-04-12T08:00:16.952Z,95424.48
2023-04-12T08:02:45.234Z,95425.33
2023-04-12T08:05:13.855Z,95422.10
2023-04-12T08:07:41.941Z,95429.52
2023-04-12T08:10:10.241Z,95427.91
2023-04-12T08:12:38.289Z,95425.60
2023-04-12T08:15:07.073Z,95425.98
2023-04-12T08:17:35.281Z,95424.67
2023-04-12T08:20:04.862Z,95425.59
2023-04-12T08:22:32.706Z,95421.98
2023-04-12T08:25:00.707Z,95422.36
2023-04-12T08:27:29.602Z,95426.57
2023-04-12T08:29:57.965Z,95425.95
2023-04-12T08:32:26.419Z,95430.70
2023-04-12T08:34:55.523Z,95430.31
2023-04-12T08:37:23.486Z,95431.30
2023-04-12T08:39:51.477Z,95433.20
2023-04-12T08:42:19.559Z,95432.74
2023-04-12T08:44:47.523Z,95433.11
2023-04-12T08:47:15.804Z,95437.48
2023-04-12T08:49:43.972Z,95441.75
2023-04-12T08:52:12.331Z,95443.89
2023-04-12T08:54:40.542Z,95443.96
2023-04-12T09:04:53.105Z,95441.44
2023-04-12T09:07:28.067Z,95444.18
2023-04-12T09:09:57.338Z,95446.80
2023-04-12T09:12:25.855Z,95450.63
2023-04-12T09:15:13.998Z,95450.10
2023-04-12T09:17:42.583Z,95455.61
2023-04-12T09:20:17.067Z,95457.83
2023-04-12T09:22:46.537Z,95459.14
2023-04-12T09:25:16.271Z,95453.46
2023-04-12T09:27:52.067Z,95449.49
2023-04-12T09:30:20.901Z,95450.41
2023-04-12T09:32:53.668Z,95447.35
2023-04-12T09:35:37.202Z,95450.17
2023-04-12T09:38:09.518Z,95447.27
2023-04-12T09:40:37.551Z,95447.64
2023-04-12T09:48:20.150Z,95442.50
2023-04-12T09:50:48.189Z,95439.97
2023-04-12T09:53:20.770Z,95439.11
2023-04-12T09:55:49.565Z,95439.04
2023-04-12T09:58:19.476Z,95430.36
2023-04-12T10:00:47.448Z,95435.73
2023-04-12T10:10:59.086Z,95431.14
2023-04-12T10:13:27.269Z,95431.30
2023-04-12T10:15:55.602Z,95430.85
2023-04-12T10:18:23.855Z,95436.23
2023-04-12T10:20:51.869Z,95440.36
2023-04-12T10:23:21.173Z,95441.73
2023-04-12T10:28:23.130Z,95442.45
2023-04-12T10:30:53.357Z,95441.83
2023-04-12T10:33:28.441Z,95442.30
2023-04-12T10:36:04.157Z,95439.09
2023-04-12T10:38:47.484Z,95437.02
2023-04-12T10:41:21.208Z,95438.02
2023-04-12T10:43:52.190Z,95437.48
2023-04-12T10:46:41.038Z,95435.79
2023-04-12T10:49:13.526Z,95440.22
2023-04-12T10:52:00.505Z,95440.39
2023-04-12T10:54:28.775Z,95438.01
2023-04-12T10:56:57.680Z,95438.93
2023-04-12T10:59:56.869Z,95437.70
2023-04-12T11:02:25.472Z,95434.73
2023-04-12T11:05:10.431Z,95436.95
2023-04-12T11:07:54.682Z,95432.73
2023-04-12T11:11:00.214Z,95432.81
2023-04-12T11:13:36.983Z,95435.34
2023-04-12T11:16:06.495Z,95437.87
2023-04-12T11:18:35.918Z,95444.31
2023-04-12T11:21:04.993Z,95447.98
2023-04-12T11:23:33.270Z,95449.52
2023-04-12T11:26:01.166Z,95446.61
2023-04-12T11:28:31.856Z,95448.36
2023-04-12T11:31:01.389Z,95455.27
2023-04-12T11:33:37.217Z,95456.95
2023-04-12T11:36:09.572Z,95457.18
2023-04-12T11:38:38.352Z,95458.63
2023-04-12T11:41:08.228Z,95457.02
2023-04-12T11:43:38.658Z,95458.33
2023-04-12T11:46:07.028Z,95454.87
2023-04-12T11:48:35.281Z,95452.80
2023-04-12T11:51:19.441Z,95454.95
2023-04-12T11:53:52.426Z,95459.23
2023-04-12T11:56:20.596Z,95457.71
2023-04-12T11:58:48.777Z,95458.70
2023-04-12T12:01:17.329Z,95457.80
2023-04-12T12:03:45.621Z,95458.17
2023-04-12T12:06:14.562Z,95463.52
2023-04-12T12:08:43.108Z,95468.20
2023-04-12T12:11:11.579Z,95471.27
2023-04-12T12:13:49.606Z,95469.88
2023-04-12T12:16:18.787Z,95472.02
2023-04-12T12:18:51.041Z,95472.64
2023-04-12T12:21:21.006Z,95476.16
2023-04-12T12:23:49.221Z,95477.09
2023-04-12T12:26:28.465Z,95472.95
2023-04-12T12:28:57.657Z,95472.42
2023-04-12T12:31:28.202Z,95474.33
2023-04-12T12:34:01.155Z,95480.84
2023-04-12T12:36:33.549Z,95484.06
2023-04-12T12:39:10.782Z,95481.77
2023-04-12T12:41:39.776Z,95483.38
2023-04-12T12:44:08.473Z,95485.22
2023-04-12T12:46:52.039Z,95484.98
2023-04-12T12:54:40.708Z,95491.35
2023-04-12T12:57:09.840Z,95492.80
2023-04-12T12:59:38.033Z,95491.27
2023-04-12T13:02:07.640Z,95490.75
2023-04-12T13:04:36.586Z,95496.11
2023-04-12T13:07:04.718Z,95497.64
2023-04-12T13:17:12.508Z,95497.19
2023-04-12T13:19:41.338Z,95505.23
2023-04-12T13:22:09.521Z,95500.41
2023-04-12T13:24:37.798Z,95502.02
2023-04-12T13:27:05.972Z,95507.39
2023-04-12T13:29:34.034Z,95512.59
2023-04-12T13:32:02.048Z,95513.36
2023-04-12T13:34:30.908Z,95512.30
2023-04-12T13:36:59.383Z,95516.36
2023-04-12T13:39:27.318Z,95515.52
2023-04-12T13:41:55.323Z,95519.34
2023-04-12T13:44:23.392Z,95522.63
2023-04-12T13:46:52.110Z,95524.15
2023-04-12T13:49:20.261Z,95527.84
2023-04-12T13:51:48.435Z,95526.39
2023-04-12T13:54:17.686Z,95534.12
2023-04-12T13:56:45.805Z,95535.42
2023-04-12T13:59:14.490Z,95537.72
2023-04-12T14:01:42.549Z,95537.64
2023-04-12T14:04:11.377Z,95541.16
2023-04-12T14:06:39.254Z,95544.00
2023-04-12T14:09:07.171Z,95539.94
2023-04-12T14:11:56.516Z,95544.15
2023-04-12T14:14:25.467Z,95543.17
2023-04-12T14:16:57.240Z,95543.61
2023-04-12T14:19:25.469Z,95544.38
2023-04-12T14:21:53.468Z,95544.77
2023-04-12T14:24:21.938Z,95547.98
2023-04-12T14:26:53.485Z,95546.98
2023-04-12T14:29:21.583Z,95547.64
2023-04-12T14:31:49.632Z,95548.79
2023-04-12T14:34:17.601Z,95549.11
2023-04-12T14:36:45.841Z,95549.19
2023-04-12T14:39:14.845Z,95551.86
2023-04-12T14:41:44.475Z,95544.89
2023-04-12T14:44:12.647Z,95547.27
2023-04-12T14:46:40.875Z,95552.47
2023-04-12T14:49:09.117Z,95553.46
2023-04-12T14:51:37.164Z,95559.19
2023-04-12T14:54:05.956Z,95557.97
2023-04-12T14:56:40.402Z,95562.48
2023-04-12T14:59:11.064Z,95559.41
2023-04-12T15:01:39.595Z,95558.95
2023-04-12T15:04:07.844Z,95558.70
2023-04-12T15:06:42.338Z,95563.29
2023-04-12T15:09:10.964Z,95564.13
2023-04-12T15:11:39.660Z,95560.83
2023-04-12T15:14:07.747Z,95559.44
2023-04-12T15:16:35.902Z,95560.29
2023-04-12T15:19:10.109Z,95562.88
2023-04-12T15:21:41.682Z,95564.02
2023-04-12T15:24:09.756Z,95563.55
2023-04-12T15:26:37.685Z,95567.64
2023-04-12T15:29:05.586Z,95568.70
2023-04-12T15:31:33.587Z,95570.14
2023-04-12T15:34:01.752Z,95573.34
2023-04-12T15:36:34.327Z,95568.50
2023-04-12T15:39:02.383Z,95580.52
2023-04-12T15:41:35.070Z,95576.98
2023-04-12T15:44:07.398Z,95581.88
2023-04-12T15:46:36.018Z,95584.08
2023-04-12T15:49:04.597Z,95582.85
2023-04-12T15:51:32.572Z,95581.85
2023-04-12T15:54:01.009Z,95587.11
2023-04-12T15:56:29.841Z,95588.77
2023-04-12T15:58:58.077Z,95589.06
2023-04-12T16:01:26.749Z,95588.00
2023-04-12T16:03:55.589Z,95595.11
2023-04-12T16:06:25.447Z,95598.01
2023-04-12T16:11:28.311Z,95599.02
2023-04-12T16:13:56.786Z,95595.43
2023-04-12T16:16:25.705Z,95599.04
2023-04-12T16:18:58.092Z,95601.72
2023-04-12T16:21:26.954Z,95602.27
2023-04-12T16:23:55.803Z,95600.36
2023-04-12T16:26:26.058Z,95596.69
2023-04-12T16:28:54.346Z,95597.69
2023-04-12T16:33:55.997Z,95600.35
2023-04-12T16:38:59.334Z,95601.34
2023-04-12T16:41:27.904Z,95603.95
2023-04-12T16:43:59.463Z,95606.31
2023-04-12T16:46:27.883Z,95607.15
2023-04-12T16:48:59.472Z,95607.77
2023-04-12T16:51:36.957Z,95606.98
2023-04-12T16:54:06.088Z,95610.36
2023-04-12T16:56:35.133Z,95609.66
2023-04-12T16:59:04.775Z,95611.50
2023-04-12T17:01:32.861Z,95615.55
2023-04-12T17:04:01.648Z,95620.29
2023-04-12T17:06:30.526Z,95623.80
2023-04-12T17:08:58.741Z,95625.25
2023-04-12T17:11:27.805Z,95629.67
2023-04-12T17:13:57.378Z,95634.27
2023-04-12T17:16:26.027Z,95640.01
2023-04-12T17:18:55.938Z,95635.89
2023-04-12T17:21:24.561Z,95636.60
2023-04-12T17:23:53.897Z,95639.14
2023-04-12T17:26:25.363Z,95636.94
2023-04-12T17:28:54.853Z,95641.70
2023-04-12T17:31:23.266Z,95645.16
2023-04-12T17:33:51.303Z,95642.23
2023-04-12T17:36:20.604Z,95642.86
2023-04-12T17:38:48.672Z,95641.81
2023-04-12T17:41:16.748Z,95646.88
2023-04-12T17:43:47.361Z,95647.87
2023-04-12T17:46:15.486Z,95651.17
2023-04-12T17:48:43.519Z,95657.07
2023-04-12T17:51:11.774Z,95658.53
2023-04-12T17:53:39.769Z,95665.42
2023-04-12T17:56:08.349Z,95664.98
2023-04-12T17:58:36.633Z,95668.83
2023-04-12T18:01:04.915Z,95673.48
2023-04-12T18:03:35.252Z,95671.59
2023-04-12T18:06:04.372Z,95675.34
2023-04-12T18:08:32.800Z,95675.50
2023-04-12T18:11:00.876Z,95673.13
2023-04-12T18:13:29.560Z,95676.34
2023-04-12T18:15:57.906Z,95680.54
2023-04-12T18:18:26.841Z,95681.38
2023-04-12T18:20:55.522Z,95679.84
2023-04-12T18:23:25.261Z,95684.04
2023-04-12T18:25:53.920Z,95685.02
2023-04-12T18:28:23.328Z,95684.48
2023-04-12T18:30:51.493Z,95685.46
2023-04-12T18:33:24.991Z,95693.65
2023-04-12T18:35:55.506Z,95694.56
2023-04-12T18:38:23.902Z,95692.26
2023-04-12T18:40:52.278Z,95689.34
2023-04-12T18:43:20.551Z,95684.83
2023-04-12T18:45:48.624Z,95682.67
2023-04-12T18:48:17.616Z,95686.57
2023-04-12T18:50:49.691Z,95688.46
2023-04-12T18:53:18.277Z,95683.95
2023-04-12T18:55:49.215Z,95678.12
2023-04-12T18:58:17.698Z,95674.29
2023-04-12T19:00:46.098Z,95673.98
2023-04-12T19:03:14.621Z,95673.05
2023-04-12T19:05:43.613Z,95674.08
2023-04-12T19:08:13.760Z,95671.78
2023-04-12T19:10:42.160Z,95670.71
2023-04-12T19:13:14.830Z,95672.53
2023-04-12T19:15:43.008Z,95671.52
2023-04-12T19:18:11.634Z,95669.98
2023-04-12T19:20:40.484Z,95671.89
2023-04-12T19:23:08.644Z,95672.05
2023-04-12T19:25:36.633Z,95672.73
2023-04-12T19:28:05.113Z,95671.56
2023-04-12T19:30:33.364Z,95665.29
2023-04-12T19:33:01.347Z,95659.91
2023-04-12T19:35:32.998Z,95660.37
2023-04-12T19:38:02.423Z,95661.58
2023-04-12T19:40:31.253Z,95663.10
2023-04-12T19:43:00.283Z,95666.21
2023-04-12T19:45:29.103Z,95665.45
2023-04-12T19:47:57.402Z,95670.73
2023-04-12T19:50:25.736Z,95669.27
2023-04-12T19:52:56.680Z,95674.38
2023-04-12T19:55:25.320Z,95674.36
2023-04-12T19:57:53.533Z,95672.44
2023-04-12T20:00:23.176Z,95669.69
2023-04-12T20:02:55.557Z,95667.54
2023-04-12T20:05:24.224Z,95668.99
2023-04-12T20:07:55.329Z,95665.69
2023-04-12T20:10:23.427Z,95659.02
2023-04-12T20:12:51.779Z,95658.70
2023-04-12T20:15:19.756Z,95661.84
2023-04-12T20:17:48.750Z,95658.23
2023-04-12T20:20:17.451Z,95654.42
2023-04-12T20:22:52.172Z,95649.60
2023-04-12T20:25:23.213Z,95649.98
2023-04-12T20:27:52.609Z,95649.58
2023-04-12T20:30:21.305Z,95650.33
2023-04-12T20:32:51.624Z,95652.86
2023-04-12T20:35:20.306Z,95653.98
2023-04-12T20:37:50.725Z,95656.20
2023-04-12T20:40:19.445Z,95654.51
2023-04-12T20:42:48.118Z,95655.58
2023-04-12T20:45:17.946Z,95654.20
2023-04-12T20:47:46.069Z,95655.48
2023-04-12T20:50:14.173Z,95656.77
2023-04-12T20:52:42.337Z,95659.27
2023-04-12T20:55:10.949Z,95660.10
2023-04-12T20:57:39.408Z,95661.94
2023-04-12T21:00:17.492Z,95654.45
2023-04-12T21:02:46.214Z,95655.49
2023-04-12T21:05:17.467Z,95657.16
2023-04-12T21:07:47.160Z,95654.11
2023-04-12T21:10:15.443Z,95648.98
2023-04-12T21:12:45.171Z,95644.61
2023-04-12T21:15:13.976Z,95643.69
2023-04-12T21:17:42.971Z,95637.80
2023-04-12T21:20:13.902Z,95637.18
2023-04-12T21:22:45.201Z,95640.55
2023-04-12T21:25:16.380Z,95645.04
2023-04-12T21:27:46.093Z,95641.29
2023-04-12T21:30:14.623Z,95636.54
2023-04-12T21:32:44.218Z,95635.52
2023-04-12T21:35:13.769Z,95635.52
2023-04-12T21:37:41.748Z,95639.78
2023-04-12T21:40:10.342Z,95634.20
2023-04-12T21:42:39.123Z,95633.73
2023-04-12T21:45:08.863Z,95632.65
2023-04-12T21:47:39.299Z,95633.40
2023-04-12T21:50:08.573Z,95635.39
2023-04-12T21:52:37.047Z,95636.45
2023-04-12T21:55:05.810Z,95639.98
2023-04-12T21:57:34.405Z,95638.28
2023-04-12T22:00:05.756Z,95634.30
2023-04-12T22:02:40.808Z,95629.34
2023-04-12T22:05:09.778Z,95631.46
2023-04-12T22:07:41.491Z,95631.38
2023-04-12T22:10:12.235Z,95633.89
2023-04-12T22:12:40.693Z,95633.12
2023-04-12T22:15:11.851Z,95631.14
2023-04-12T22:17:41.003Z,95634.19
2023-04-12T22:20:10.577Z,95632.34
2023-04-12T22:22:39.912Z,95629.81
2023-04-12T22:25:12.041Z,95629.88
2023-04-12T22:27:40.852Z,95626.05
2023-04-12T22:30:12.206Z,95633.30
2023-04-12T22:32:40.622Z,95632.23
2023-04-12T22:35:10.308Z,95632.38
2023-04-12T22:37:39.311Z,95631.30
2023-04-12T22:40:14.470Z,95631.67
2023-04-12T22:42:48.742Z,95627.92
2023-04-12T22:45:17.243Z,95622.72
2023-04-12T22:47:45.603Z,95621.64
2023-04-12T22:50:14.088Z,95619.34
2023-04-12T22:52:42.251Z,95617.42
2023-04-12T22:55:18.360Z,95614.35
2023-04-12T22:57:47.244Z,95612.20
2023-04-12T23:00:18.187Z,95608.77
2023-04-12T23:02:46.896Z,95605.40
2023-04-12T23:05:16.314Z,95603.71
2023-04-12T23:07:44.721Z,95602.64
2023-04-12T23:10:12.890Z,95603.78
2023-04-12T23:12:40.969Z,95607.74
2023-04-12T23:15:09.330Z,95605.52
2023-04-12T23:17:37.391Z,95608.50
2023-04-12T23:20:11.007Z,95610.23
2023-04-12T23:22:57.366Z,95608.31
2023-04-12T23:25:39.797Z,95610.36
2023-04-12T23:28:15.094Z,95616.08
2023-04-12T23:30:44.671Z,95617.08
2023-04-12T23:33:12.847Z,95618.45
2023-04-12T23:35:41.524Z,95618.66
2023-04-12T23:38:10.434Z,95618.36
2023-04-12T23:40:38.503Z,95618.73
2023-04-12T23:43:08.718Z,95617.42
2023-04-12T23:45:39.668Z,95615.35
2023-04-12T23:48:08.208Z,95615.51
2023-04-12T23:50:36.925Z,95614.98
2023-04-12T23:53:05.987Z,95617.57
2023-04-12T23:55:33.992Z,95619.38
2023-04-12T23:58:02.073Z,95617.71
